sensor_id;sensor_type;location;lat;lon;timestamp;temperature;humidity
23633;DHT22;11993;48.748;9.166;2023-06-26T00:01:29;21.50;49.70
23633;DHT22;11993;48.748;9.166;2023-06-26T00:03:58;21.60;49.80
23633;DHT22;11993;48.748;9.166;2023-06-26T00:06:25;21.40;50.10
23633;DHT22;11993;48.748;9.166;2023-06-26T00:08:51;21.20;50.60
23633;DHT22;11993;48.748;9.166;2023-06-26T00:11:18;21.20;50.60
23633;DHT22;11993;48.748;9.166;2023-06-26T00:13:44;21.40;50.40
23633;DHT22;11993;48.748;9.166;2023-06-26T00:16:09;21.30;50.60
23633;DHT22;11993;48.748;9.166;2023-06-26T00:18:35;21.20;50.50
23633;DHT22;11993;48.748;9.166;2023-06-26T00:21:00;21.40;50.20
23633;DHT22;11993;48.748;9.166;2023-06-26T00:23:26;21.40;50.20
23633;DHT22;11993;48.748;9.166;2023-06-26T00:25:53;21.40;50.00
23633;DHT22;11993;48.748;9.166;2023-06-26T00:28:18;21.50;50.00
23633;DHT22;11993;48.748;9.166;2023-06-26T00:30:44;21.40;50.00
23633;DHT22;11993;48.748;9.166;2023-06-26T00:33:09;21.50;49.70
23633;DHT22;11993;48.748;9.166;2023-06-26T00:35:35;21.50;49.70
23633;DHT22;11993;48.748;9.166;2023-06-26T00:38:01;21.40;49.90
23633;DHT22;11993;48.748;9.166;2023-06-26T00:40:27;21.50;49.80
23633;DHT22;11993;48.748;9.166;2023-06-26T00:42:53;21.50;49.70
23633;DHT22;11993;48.748;9.166;2023-06-26T00:45:19;21.50;49.70
23633;DHT22;11993;48.748;9.166;2023-06-26T00:47:44;21.50;49.70
23633;DHT22;11993;48.748;9.166;2023-06-26T00:50:10;21.50;49.80
23633;DHT22;11993;48.748;9.166;2023-06-26T00:52:37;21.40;50.10
23633;DHT22;11993;48.748;9.166;2023-06-26T00:55:03;21.30;50.30
23633;DHT22;11993;48.748;9.166;2023-06-26T00:57:30;21.30;50.30
23633;DHT22;11993;48.748;9.166;2023-06-26T00:59:57;21.50;50.10
23633;DHT22;11993;48.748;9.166;2023-06-26T01:02:22;21.30;50.30
23633;DHT22;11993;48.748;9.166;2023-06-26T01:04:49;21.40;50.30
23633;DHT22;11993;48.748;9.166;2023-06-26T01:07:16;21.40;50.20
23633;DHT22;11993;48.748;9.166;2023-06-26T01:09:45;21.50;49.90
23633;DHT22;11993;48.748;9.166;2023-06-26T01:12:11;21.40;50.10
23633;DHT22;11993;48.748;9.166;2023-06-26T01:14:37;21.50;49.80
23633;DHT22;11993;48.748;9.166;2023-06-26T01:17:03;21.40;49.90
23633;DHT22;11993;48.748;9.166;2023-06-26T01:19:30;21.40;49.80
23633;DHT22;11993;48.748;9.166;2023-06-26T01:22:22;21.30;50.10
23633;DHT22;11993;48.748;9.166;2023-06-26T01:27:32;21.30;50.00
23633;DHT22;11993;48.748;9.166;2023-06-26T01:30:00;21.10;50.30
23633;DHT22;11993;48.748;9.166;2023-06-26T01:32:28;21.10;50.20
23633;DHT22;11993;48.748;9.166;2023-06-26T01:34:54;21.10;50.40
23633;DHT22;11993;48.748;9.166;2023-06-26T01:37:20;21.20;50.20
23633;DHT22;11993;48.748;9.166;2023-06-26T01:39:45;21.20;50.20
23633;DHT22;11993;48.748;9.166;2023-06-26T01:42:11;21.10;50.40
23633;DHT22;11993;48.748;9.166;2023-06-26T01:44:44;21.10;50.60
23633;DHT22;11993;48.748;9.166;2023-06-26T01:47:11;21.10;50.80
23633;DHT22;11993;48.748;9.166;2023-06-26T01:52:19;21.10;50.70
23633;DHT22;11993;48.748;9.166;2023-06-26T01:55:04;21.10;51.00
23633;DHT22;11993;48.748;9.166;2023-06-26T01:57:32;21.00;51.20
23633;DHT22;11993;48.748;9.166;2023-06-26T01:59:58;20.90;51.70
23633;DHT22;11993;48.748;9.166;2023-06-26T02:02:24;20.90;51.50
23633;DHT22;11993;48.748;9.166;2023-06-26T02:04:51;20.90;51.70
23633;DHT22;11993;48.748;9.166;2023-06-26T02:07:17;21.00;51.60
23633;DHT22;11993;48.748;9.166;2023-06-26T02:09:42;20.80;52.00
23633;DHT22;11993;48.748;9.166;2023-06-26T02:12:09;20.80;51.90
23633;DHT22;11993;48.748;9.166;2023-06-26T02:14:34;20.90;52.00
23633;DHT22;11993;48.748;9.166;2023-06-26T02:17:00;20.90;52.10
23633;DHT22;11993;48.748;9.166;2023-06-26T02:19:26;20.70;52.50
23633;DHT22;11993;48.748;9.166;2023-06-26T02:21:53;20.60;52.60
23633;DHT22;11993;48.748;9.166;2023-06-26T02:24:19;20.70;52.60
23633;DHT22;11993;48.748;9.166;2023-06-26T02:26:44;20.70;52.50
23633;DHT22;11993;48.748;9.166;2023-06-26T02:29:11;20.70;52.50
23633;DHT22;11993;48.748;9.166;2023-06-26T02:31:36;20.70;52.60
23633;DHT22;11993;48.748;9.166;2023-06-26T02:34:02;20.60;52.80
23633;DHT22;11993;48.748;9.166;2023-06-26T02:36:28;20.70;52.60
23633;DHT22;11993;48.748;9.166;2023-06-26T02:38:53;20.60;52.90
23633;DHT22;11993;48.748;9.166;2023-06-26T02:41:19;20.80;52.70
23633;DHT22;11993;48.748;9.166;2023-06-26T02:43:44;20.70;52.90
23633;DHT22;11993;48.748;9.166;2023-06-26T02:46:10;20.60;53.10
23633;DHT22;11993;48.748;9.166;2023-06-26T02:48:35;20.60;53.20
23633;DHT22;11993;48.748;9.166;2023-06-26T02:51:01;20.60;53.40
23633;DHT22;11993;48.748;9.166;2023-06-26T02:53:26;20.60;53.30
23633;DHT22;11993;48.748;9.166;2023-06-26T02:55:52;20.60;53.60
23633;DHT22;11993;48.748;9.166;2023-06-26T02:58:17;20.40;54.00
23633;DHT22;11993;48.748;9.166;2023-06-26T03:00:43;20.40;54.00
23633;DHT22;11993;48.748;9.166;2023-06-26T03:03:09;20.40;54.00
23633;DHT22;11993;48.748;9.166;2023-06-26T03:05:35;20.30;54.20
23633;DHT22;11993;48.748;9.166;2023-06-26T03:08:01;20.40;54.30
23633;DHT22;11993;48.748;9.166;2023-06-26T03:10:27;20.40;54.20
23633;DHT22;11993;48.748;9.166;2023-06-26T03:12:52;20.30;54.40
23633;DHT22;11993;48.748;9.166;2023-06-26T03:15:18;20.30;54.30
23633;DHT22;11993;48.748;9.166;2023-06-26T03:17:44;20.40;54.30
23633;DHT22;11993;48.748;9.166;2023-06-26T03:20:10;20.30;54.50
23633;DHT22;11993;48.748;9.166;2023-06-26T03:22:36;20.30;54.50
23633;DHT22;11993;48.748;9.166;2023-06-26T03:25:02;20.40;54.50
23633;DHT22;11993;48.748;9.166;2023-06-26T03:27:28;20.40;54.60
23633;DHT22;11993;48.748;9.166;2023-06-26T03:29:53;20.40;54.70
23633;DHT22;11993;48.748;9.166;2023-06-26T03:32:19;20.40;54.80
23633;DHT22;11993;48.748;9.166;2023-06-26T03:34:44;20.40;54.80
23633;DHT22;11993;48.748;9.166;2023-06-26T03:37:10;20.30;54.90
23633;DHT22;11993;48.748;9.166;2023-06-26T03:39:36;20.30;55.20
23633;DHT22;11993;48.748;9.166;2023-06-26T03:42:01;20.30;55.10
23633;DHT22;11993;48.748;9.166;2023-06-26T03:44:27;20.40;55.10
23633;DHT22;11993;48.748;9.166;2023-06-26T03:46:53;20.40;55.00
23633;DHT22;11993;48.748;9.166;2023-06-26T03:49:19;20.30;55.30
23633;DHT22;11993;48.748;9.166;2023-06-26T03:51:45;20.30;55.30
23633;DHT22;11993;48.748;9.166;2023-06-26T03:54:10;20.40;55.00
23633;DHT22;11993;48.748;9.166;2023-06-26T03:56:36;20.40;55.20
23633;DHT22;11993;48.748;9.166;2023-06-26T03:59:02;20.50;54.80
23633;DHT22;11993;48.748;9.166;2023-06-26T04:01:27;20.40;54.80
23633;DHT22;11993;48.748;9.166;2023-06-26T04:03:53;20.30;55.10
23633;DHT22;11993;48.748;9.166;2023-06-26T04:06:19;20.50;54.90
23633;DHT22;11993;48.748;9.166;2023-06-26T04:08:44;20.50;54.80
23633;DHT22;11993;48.748;9.166;2023-06-26T04:11:10;20.50;54.80
23633;DHT22;11993;48.748;9.166;2023-06-26T04:13:35;20.60;54.40
23633;DHT22;11993;48.748;9.166;2023-06-26T04:16:01;20.70;54.20
23633;DHT22;11993;48.748;9.166;2023-06-26T04:18:26;20.70;54.20
23633;DHT22;11993;48.748;9.166;2023-06-26T04:23:32;20.90;53.90
23633;DHT22;11993;48.748;9.166;2023-06-26T04:25:59;20.80;54.00
23633;DHT22;11993;48.748;9.166;2023-06-26T04:28:24;20.80;54.30
23633;DHT22;11993;48.748;9.166;2023-06-26T04:30:50;20.80;54.10
23633;DHT22;11993;48.748;9.166;2023-06-26T04:33:16;20.80;54.40
23633;DHT22;11993;48.748;9.166;2023-06-26T04:35:41;20.90;54.20
23633;DHT22;11993;48.748;9.166;2023-06-26T04:38:10;20.90;54.30
23633;DHT22;11993;48.748;9.166;2023-06-26T04:40:36;20.90;54.40
23633;DHT22;11993;48.748;9.166;2023-06-26T04:43:01;20.90;54.40
23633;DHT22;11993;48.748;9.166;2023-06-26T04:45:27;21.10;54.30
23633;DHT22;11993;48.748;9.166;2023-06-26T04:47:52;21.20;53.90
23633;DHT22;11993;48.748;9.166;2023-06-26T04:50:18;21.20;53.80
23633;DHT22;11993;48.748;9.166;2023-06-26T04:52:44;21.30;53.80
23633;DHT22;11993;48.748;9.166;2023-06-26T04:55:09;21.20;53.90
23633;DHT22;11993;48.748;9.166;2023-06-26T04:57:35;21.20;53.70
23633;DHT22;11993;48.748;9.166;2023-06-26T05:00:01;21.30;54.10
23633;DHT22;11993;48.748;9.166;2023-06-26T05:02:27;21.40;53.90
23633;DHT22;11993;48.748;9.166;2023-06-26T05:04:52;21.50;54.00
23633;DHT22;11993;48.748;9.166;2023-06-26T05:07:18;21.50;53.50
23633;DHT22;11993;48.748;9.166;2023-06-26T05:09:43;21.60;53.30
23633;DHT22;11993;48.748;9.166;2023-06-26T05:12:09;21.60;53.30
23633;DHT22;11993;48.748;9.166;2023-06-26T05:14:34;21.60;53.40
23633;DHT22;11993;48.748;9.166;2023-06-26T05:17:00;21.60;53.10
23633;DHT22;11993;48.748;9.166;2023-06-26T05:19:25;21.70;53.00
23633;DHT22;11993;48.748;9.166;2023-06-26T05:21:52;21.70;52.90
23633;DHT22;11993;48.748;9.166;2023-06-26T05:24:19;21.70;52.90
23633;DHT22;11993;48.748;9.166;2023-06-26T05:26:45;22.10;52.60
23633;DHT22;11993;48.748;9.166;2023-06-26T05:29:11;22.10;52.20
23633;DHT22;11993;48.748;9.166;2023-06-26T05:31:40;22.10;52.20
23633;DHT22;11993;48.748;9.166;2023-06-26T05:34:07;22.20;52.40
23633;DHT22;11993;48.748;9.166;2023-06-26T05:36:35;22.30;51.90
23633;DHT22;11993;48.748;9.166;2023-06-26T05:39:01;22.50;51.80
23633;DHT22;11993;48.748;9.166;2023-06-26T05:41:28;22.40;52.10
23633;DHT22;11993;48.748;9.166;2023-06-26T05:43:53;22.60;51.70
23633;DHT22;11993;48.748;9.166;2023-06-26T05:46:19;22.60;51.60
23633;DHT22;11993;48.748;9.166;2023-06-26T05:48:45;22.60;51.20
23633;DHT22;11993;48.748;9.166;2023-06-26T05:51:11;22.80;51.20
23633;DHT22;11993;48.748;9.166;2023-06-26T05:53:37;22.80;50.90
23633;DHT22;11993;48.748;9.166;2023-06-26T05:56:03;23.00;51.30
23633;DHT22;11993;48.748;9.166;2023-06-26T05:58:28;23.10;50.60
23633;DHT22;11993;48.748;9.166;2023-06-26T06:00:55;23.20;50.90
23633;DHT22;11993;48.748;9.166;2023-06-26T06:03:21;23.40;50.70
23633;DHT22;11993;48.748;9.166;2023-06-26T06:05:46;23.50;50.30
23633;DHT22;11993;48.748;9.166;2023-06-26T06:08:12;23.70;49.60
23633;DHT22;11993;48.748;9.166;2023-06-26T06:10:37;23.80;49.60
23633;DHT22;11993;48.748;9.166;2023-06-26T06:13:03;24.10;48.50
23633;DHT22;11993;48.748;9.166;2023-06-26T06:15:29;24.20;48.10
23633;DHT22;11993;48.748;9.166;2023-06-26T06:17:54;24.30;47.90
23633;DHT22;11993;48.748;9.166;2023-06-26T06:20:20;24.30;47.80
23633;DHT22;11993;48.748;9.166;2023-06-26T06:22:45;24.60;47.40
23633;DHT22;11993;48.748;9.166;2023-06-26T06:25:11;24.60;47.10
23633;DHT22;11993;48.748;9.166;2023-06-26T06:27:37;24.60;47.20
23633;DHT22;11993;48.748;9.166;2023-06-26T06:30:03;24.50;47.50
23633;DHT22;11993;48.748;9.166;2023-06-26T06:32:28;24.60;47.30
23633;DHT22;11993;48.748;9.166;2023-06-26T06:34:54;24.60;47.60
23633;DHT22;11993;48.748;9.166;2023-06-26T06:37:19;24.60;47.50
23633;DHT22;11993;48.748;9.166;2023-06-26T06:39:45;24.90;46.90
23633;DHT22;11993;48.748;9.166;2023-06-26T06:42:10;25.10;45.80
23633;DHT22;11993;48.748;9.166;2023-06-26T06:44:36;25.10;46.70
23633;DHT22;11993;48.748;9.166;2023-06-26T06:47:01;25.10;46.50
23633;DHT22;11993;48.748;9.166;2023-06-26T06:49:27;25.40;46.60
23633;DHT22;11993;48.748;9.166;2023-06-26T06:51:52;25.80;45.70
23633;DHT22;11993;48.748;9.166;2023-06-26T06:54:18;26.00;43.90
23633;DHT22;11993;48.748;9.166;2023-06-26T06:56:44;26.20;42.80
23633;DHT22;11993;48.748;9.166;2023-06-26T06:59:10;26.30;42.60
23633;DHT22;11993;48.748;9.166;2023-06-26T07:01:36;26.60;42.60
23633;DHT22;11993;48.748;9.166;2023-06-26T07:04:01;26.70;41.90
23633;DHT22;11993;48.748;9.166;2023-06-26T07:06:29;27.00;42.10
23633;DHT22;11993;48.748;9.166;2023-06-26T07:08:55;27.30;42.00
23633;DHT22;11993;48.748;9.166;2023-06-26T07:11:20;27.30;41.20
23633;DHT22;11993;48.748;9.166;2023-06-26T07:13:46;27.50;41.00
23633;DHT22;11993;48.748;9.166;2023-06-26T07:16:11;27.80;40.60
23633;DHT22;11993;48.748;9.166;2023-06-26T07:18:38;27.80;40.80
23633;DHT22;11993;48.748;9.166;2023-06-26T07:21:03;28.00;40.50
23633;DHT22;11993;48.748;9.166;2023-06-26T07:23:29;28.10;40.40
23633;DHT22;11993;48.748;9.166;2023-06-26T07:25:55;28.30;39.40
23633;DHT22;11993;48.748;9.166;2023-06-26T07:28:20;28.40;39.80
23633;DHT22;11993;48.748;9.166;2023-06-26T07:30:46;28.50;39.60
23633;DHT22;11993;48.748;9.166;2023-06-26T07:33:11;28.60;39.50
23633;DHT22;11993;48.748;9.166;2023-06-26T07:35:37;28.80;40.00
23633;DHT22;11993;48.748;9.166;2023-06-26T07:38:02;29.00;39.00
23633;DHT22;11993;48.748;9.166;2023-06-26T07:40:28;29.10;39.20
23633;DHT22;11993;48.748;9.166;2023-06-26T07:42:53;29.20;39.60
23633;DHT22;11993;48.748;9.166;2023-06-26T07:45:19;29.30;39.20
23633;DHT22;11993;48.748;9.166;2023-06-26T07:47:45;29.30;38.90
23633;DHT22;11993;48.748;9.166;2023-06-26T07:50:11;29.60;38.90
23633;DHT22;11993;48.748;9.166;2023-06-26T07:52:36;29.70;38.30
23633;DHT22;11993;48.748;9.166;2023-06-26T07:55:02;29.90;38.30
23633;DHT22;11993;48.748;9.166;2023-06-26T07:57:29;29.90;38.30
23633;DHT22;11993;48.748;9.166;2023-06-26T07:59:55;30.10;38.30
23633;DHT22;11993;48.748;9.166;2023-06-26T08:02:21;30.10;38.10
23633;DHT22;11993;48.748;9.166;2023-06-26T08:04:47;30.40;37.80
23633;DHT22;11993;48.748;9.166;2023-06-26T08:07:12;30.60;37.10
23633;DHT22;11993;48.748;9.166;2023-06-26T08:09:39;30.70;36.80
23633;DHT22;11993;48.748;9.166;2023-06-26T08:12:05;30.80;37.40
23633;DHT22;11993;48.748;9.166;2023-06-26T08:14:31;31.00;36.10
23633;DHT22;11993;48.748;9.166;2023-06-26T08:16:57;31.20;35.40
23633;DHT22;11993;48.748;9.166;2023-06-26T08:19:25;31.20;35.10
23633;DHT22;11993;48.748;9.166;2023-06-26T08:21:50;31.10;34.90
23633;DHT22;11993;48.748;9.166;2023-06-26T08:24:16;31.40;35.00
23633;DHT22;11993;48.748;9.166;2023-06-26T08:26:45;31.50;34.50
23633;DHT22;11993;48.748;9.166;2023-06-26T08:29:11;31.50;34.60
23633;DHT22;11993;48.748;9.166;2023-06-26T08:31:38;31.50;35.40
23633;DHT22;11993;48.748;9.166;2023-06-26T08:34:04;31.80;35.20
23633;DHT22;11993;48.748;9.166;2023-06-26T08:36:30;32.00;34.50
23633;DHT22;11993;48.748;9.166;2023-06-26T08:38:55;31.90;33.90
23633;DHT22;11993;48.748;9.166;2023-06-26T08:41:21;32.00;33.20
23633;DHT22;11993;48.748;9.166;2023-06-26T08:43:47;32.10;33.10
23633;DHT22;11993;48.748;9.166;2023-06-26T08:46:14;32.20;33.40
23633;DHT22;11993;48.748;9.166;2023-06-26T08:48:41;32.40;34.20
23633;DHT22;11993;48.748;9.166;2023-06-26T08:51:12;32.30;33.90
23633;DHT22;11993;48.748;9.166;2023-06-26T08:53:47;32.50;34.40
23633;DHT22;11993;48.748;9.166;2023-06-26T08:56:17;32.30;33.50
23633;DHT22;11993;48.748;9.166;2023-06-26T08:58:43;32.90;33.40
23633;DHT22;11993;48.748;9.166;2023-06-26T09:01:09;33.10;33.40
23633;DHT22;11993;48.748;9.166;2023-06-26T09:03:36;33.10;32.80
23633;DHT22;11993;48.748;9.166;2023-06-26T09:06:02;32.80;33.30
23633;DHT22;11993;48.748;9.166;2023-06-26T09:08:27;32.50;34.00
23633;DHT22;11993;48.748;9.166;2023-06-26T09:10:53;32.10;34.20
23633;DHT22;11993;48.748;9.166;2023-06-26T09:13:19;32.00;34.90
23633;DHT22;11993;48.748;9.166;2023-06-26T09:15:45;32.40;34.10
23633;DHT22;11993;48.748;9.166;2023-06-26T09:18:11;32.90;33.70
23633;DHT22;11993;48.748;9.166;2023-06-26T09:20:37;32.90;33.30
23633;DHT22;11993;48.748;9.166;2023-06-26T09:23:03;33.10;32.80
23633;DHT22;11993;48.748;9.166;2023-06-26T09:25:29;33.50;32.60
23633;DHT22;11993;48.748;9.166;2023-06-26T09:27:56;33.50;32.60
23633;DHT22;11993;48.748;9.166;2023-06-26T09:30:21;33.70;32.00
23633;DHT22;11993;48.748;9.166;2023-06-26T09:32:47;33.70;31.10
23633;DHT22;11993;48.748;9.166;2023-06-26T09:35:12;33.20;31.30
23633;DHT22;11993;48.748;9.166;2023-06-26T09:37:38;33.20;31.50
23633;DHT22;11993;48.748;9.166;2023-06-26T09:40:05;33.00;31.60
23633;DHT22;11993;48.748;9.166;2023-06-26T09:42:30;33.10;31.50
23633;DHT22;11993;48.748;9.166;2023-06-26T09:44:56;33.00;31.50
23633;DHT22;11993;48.748;9.166;2023-06-26T09:47:23;32.80;31.50
23633;DHT22;11993;48.748;9.166;2023-06-26T09:49:48;33.10;31.10
23633;DHT22;11993;48.748;9.166;2023-06-26T09:52:16;33.20;31.40
23633;DHT22;11993;48.748;9.166;2023-06-26T09:54:42;33.20;31.10
23633;DHT22;11993;48.748;9.166;2023-06-26T09:57:12;33.00;31.60
23633;DHT22;11993;48.748;9.166;2023-06-26T09:59:38;32.70;32.40
23633;DHT22;11993;48.748;9.166;2023-06-26T10:02:05;32.60;32.90
23633;DHT22;11993;48.748;9.166;2023-06-26T10:04:31;32.50;32.90
23633;DHT22;11993;48.748;9.166;2023-06-26T10:06:58;32.80;32.60
23633;DHT22;11993;48.748;9.166;2023-06-26T10:09:27;32.60;33.10
23633;DHT22;11993;48.748;9.166;2023-06-26T10:12:02;32.80;33.40
23633;DHT22;11993;48.748;9.166;2023-06-26T10:14:37;33.10;32.90
23633;DHT22;11993;48.748;9.166;2023-06-26T10:17:16;33.20;31.50
23633;DHT22;11993;48.748;9.166;2023-06-26T10:19:45;33.60;31.90
23633;DHT22;11993;48.748;9.166;2023-06-26T10:22:14;33.20;33.20
23633;DHT22;11993;48.748;9.166;2023-06-26T10:24:41;32.90;34.10
23633;DHT22;11993;48.748;9.166;2023-06-26T10:27:20;32.60;34.70
23633;DHT22;11993;48.748;9.166;2023-06-26T10:29:48;32.40;35.50
23633;DHT22;11993;48.748;9.166;2023-06-26T10:32:16;32.10;35.50
23633;DHT22;11993;48.748;9.166;2023-06-26T10:34:43;31.90;35.80
23633;DHT22;11993;48.748;9.166;2023-06-26T10:37:08;31.60;36.50
23633;DHT22;11993;48.748;9.166;2023-06-26T10:39:49;31.20;36.90
23633;DHT22;11993;48.748;9.166;2023-06-26T10:42:19;30.60;37.40
23633;DHT22;11993;48.748;9.166;2023-06-26T10:44:46;30.30;37.90
23633;DHT22;11993;48.748;9.166;2023-06-26T10:47:30;30.10;38.60
23633;DHT22;11993;48.748;9.166;2023-06-26T10:49:56;30.00;39.00
23633;DHT22;11993;48.748;9.166;2023-06-26T10:52:26;29.80;39.20
23633;DHT22;11993;48.748;9.166;2023-06-26T10:54:54;30.40;38.60
23633;DHT22;11993;48.748;9.166;2023-06-26T10:57:23;30.90;37.50
23633;DHT22;11993;48.748;9.166;2023-06-26T11:00:09;31.50;36.80
23633;DHT22;11993;48.748;9.166;2023-06-26T11:02:51;32.10;36.50
23633;DHT22;11993;48.748;9.166;2023-06-26T11:05:28;32.60;35.60
23633;DHT22;11993;48.748;9.166;2023-06-26T11:08:08;32.80;34.70
23633;DHT22;11993;48.748;9.166;2023-06-26T11:10:52;32.70;35.00
23633;DHT22;11993;48.748;9.166;2023-06-26T11:13:19;33.10;34.80
23633;DHT22;11993;48.748;9.166;2023-06-26T11:15:46;33.20;34.60
23633;DHT22;11993;48.748;9.166;2023-06-26T11:18:12;33.00;35.10
23633;DHT22;11993;48.748;9.166;2023-06-26T11:20:38;32.70;34.80
23633;DHT22;11993;48.748;9.166;2023-06-26T11:23:08;32.50;35.20
23633;DHT22;11993;48.748;9.166;2023-06-26T11:25:38;32.50;35.50
23633;DHT22;11993;48.748;9.166;2023-06-26T11:28:04;33.00;35.20
23633;DHT22;11993;48.748;9.166;2023-06-26T11:30:31;33.10;35.00
23633;DHT22;11993;48.748;9.166;2023-06-26T11:33:07;33.40;34.10
23633;DHT22;11993;48.748;9.166;2023-06-26T11:35:32;33.60;34.10
23633;DHT22;11993;48.748;9.166;2023-06-26T11:37:59;33.50;34.80
23633;DHT22;11993;48.748;9.166;2023-06-26T11:40:33;33.40;34.30
23633;DHT22;11993;48.748;9.166;2023-06-26T11:43:00;33.30;34.50
23633;DHT22;11993;48.748;9.166;2023-06-26T11:45:28;33.50;34.60
23633;DHT22;11993;48.748;9.166;2023-06-26T11:47:55;33.90;34.90
23633;DHT22;11993;48.748;9.166;2023-06-26T11:50:21;33.90;34.80
23633;DHT22;11993;48.748;9.166;2023-06-26T11:53:01;33.80;34.60
23633;DHT22;11993;48.748;9.166;2023-06-26T11:55:41;33.50;34.80
23633;DHT22;11993;48.748;9.166;2023-06-26T11:58:07;33.90;35.00
23633;DHT22;11993;48.748;9.166;2023-06-26T12:00:33;33.70;35.00
23633;DHT22;11993;48.748;9.166;2023-06-26T12:02:58;33.90;34.90
23633;DHT22;11993;48.748;9.166;2023-06-26T12:05:24;34.00;34.70
23633;DHT22;11993;48.748;9.166;2023-06-26T12:07:50;34.30;34.80
23633;DHT22;11993;48.748;9.166;2023-06-26T12:10:17;34.20;34.90
23633;DHT22;11993;48.748;9.166;2023-06-26T12:12:45;34.00;35.00
23633;DHT22;11993;48.748;9.166;2023-06-26T12:15:14;33.50;35.80
23633;DHT22;11993;48.748;9.166;2023-06-26T12:17:40;33.40;36.20
23633;DHT22;11993;48.748;9.166;2023-06-26T12:20:16;33.50;36.10
23633;DHT22;11993;48.748;9.166;2023-06-26T12:22:43;33.60;37.00
23633;DHT22;11993;48.748;9.166;2023-06-26T12:25:10;33.90;35.90
23633;DHT22;11993;48.748;9.166;2023-06-26T12:27:36;34.10;35.70
23633;DHT22;11993;48.748;9.166;2023-06-26T12:30:03;34.20;36.10
23633;DHT22;11993;48.748;9.166;2023-06-26T12:32:29;34.10;35.90
23633;DHT22;11993;48.748;9.166;2023-06-26T12:34:57;34.30;36.00
23633;DHT22;11993;48.748;9.166;2023-06-26T12:37:22;34.40;35.70
23633;DHT22;11993;48.748;9.166;2023-06-26T12:42:22;34.50;35.80
23633;DHT22;11993;48.748;9.166;2023-06-26T12:44:49;34.60;36.00
23633;DHT22;11993;48.748;9.166;2023-06-26T12:47:16;34.60;35.30
23633;DHT22;11993;48.748;9.166;2023-06-26T12:49:44;34.60;35.20
23633;DHT22;11993;48.748;9.166;2023-06-26T12:52:12;34.50;35.30
23633;DHT22;11993;48.748;9.166;2023-06-26T12:54:39;34.60;35.30
23633;DHT22;11993;48.748;9.166;2023-06-26T12:57:06;34.60;35.40
23633;DHT22;11993;48.748;9.166;2023-06-26T12:59:32;34.40;35.60
23633;DHT22;11993;48.748;9.166;2023-06-26T13:01:59;34.50;35.90
23633;DHT22;11993;48.748;9.166;2023-06-26T13:04:25;34.60;35.60
23633;DHT22;11993;48.748;9.166;2023-06-26T13:06:51;34.60;34.90
23633;DHT22;11993;48.748;9.166;2023-06-26T13:09:17;34.30;35.50
23633;DHT22;11993;48.748;9.166;2023-06-26T13:11:43;34.10;35.90
23633;DHT22;11993;48.748;9.166;2023-06-26T13:14:08;34.00;36.20
23633;DHT22;11993;48.748;9.166;2023-06-26T13:16:34;34.00;36.20
23633;DHT22;11993;48.748;9.166;2023-06-26T13:19:00;34.30;35.50
23633;DHT22;11993;48.748;9.166;2023-06-26T13:21:28;34.30;35.20
23633;DHT22;11993;48.748;9.166;2023-06-26T13:23:54;33.50;36.30
23633;DHT22;11993;48.748;9.166;2023-06-26T13:26:21;33.90;35.90
23633;DHT22;11993;48.748;9.166;2023-06-26T13:28:52;34.10;35.50
23633;DHT22;11993;48.748;9.166;2023-06-26T13:31:18;34.10;35.40
23633;DHT22;11993;48.748;9.166;2023-06-26T13:33:44;34.00;35.10
23633;DHT22;11993;48.748;9.166;2023-06-26T13:36:11;33.60;35.30
23633;DHT22;11993;48.748;9.166;2023-06-26T13:38:37;33.60;35.80
23633;DHT22;11993;48.748;9.166;2023-06-26T13:41:02;33.30;35.60
23633;DHT22;11993;48.748;9.166;2023-06-26T13:43:29;33.30;35.60
23633;DHT22;11993;48.748;9.166;2023-06-26T13:45:55;33.00;35.70
23633;DHT22;11993;48.748;9.166;2023-06-26T13:48:21;32.90;36.30
23633;DHT22;11993;48.748;9.166;2023-06-26T13:50:47;33.10;35.80
23633;DHT22;11993;48.748;9.166;2023-06-26T13:53:13;33.00;35.30
23633;DHT22;11993;48.748;9.166;2023-06-26T13:55:40;33.00;35.50
23633;DHT22;11993;48.748;9.166;2023-06-26T13:58:06;32.90;35.60
23633;DHT22;11993;48.748;9.166;2023-06-26T14:00:32;32.80;35.70
23633;DHT22;11993;48.748;9.166;2023-06-26T14:03:05;33.10;35.10
23633;DHT22;11993;48.748;9.166;2023-06-26T14:05:36;33.20;34.10
23633;DHT22;11993;48.748;9.166;2023-06-26T14:08:03;32.80;34.40
23633;DHT22;11993;48.748;9.166;2023-06-26T14:10:30;32.90;34.10
23633;DHT22;11993;48.748;9.166;2023-06-26T14:12:55;32.40;34.70
23633;DHT22;11993;48.748;9.166;2023-06-26T14:15:21;32.60;34.40
23633;DHT22;11993;48.748;9.166;2023-06-26T14:17:47;32.20;33.30
23633;DHT22;11993;48.748;9.166;2023-06-26T14:20:15;31.80;33.90
23633;DHT22;11993;48.748;9.166;2023-06-26T14:22:42;32.00;34.20
23633;DHT22;11993;48.748;9.166;2023-06-26T14:25:09;31.80;34.30
23633;DHT22;11993;48.748;9.166;2023-06-26T14:27:36;31.60;34.30
23633;DHT22;11993;48.748;9.166;2023-06-26T14:30:03;31.60;33.20
23633;DHT22;11993;48.748;9.166;2023-06-26T14:32:29;31.30;34.00
23633;DHT22;11993;48.748;9.166;2023-06-26T14:34:55;31.10;34.30
23633;DHT22;11993;48.748;9.166;2023-06-26T14:37:21;31.00;34.40
23633;DHT22;11993;48.748;9.166;2023-06-26T14:39:46;31.10;34.50
23633;DHT22;11993;48.748;9.166;2023-06-26T14:42:12;31.10;34.30
23633;DHT22;11993;48.748;9.166;2023-06-26T14:44:38;31.40;34.50
23633;DHT22;11993;48.748;9.166;2023-06-26T14:47:03;31.20;35.00
23633;DHT22;11993;48.748;9.166;2023-06-26T14:49:29;31.30;35.40
23633;DHT22;11993;48.748;9.166;2023-06-26T14:51:55;31.50;35.10
23633;DHT22;11993;48.748;9.166;2023-06-26T14:54:20;31.40;34.80
23633;DHT22;11993;48.748;9.166;2023-06-26T14:56:46;31.10;35.40
23633;DHT22;11993;48.748;9.166;2023-06-26T14:59:12;31.00;34.90
23633;DHT22;11993;48.748;9.166;2023-06-26T15:01:38;31.10;35.40
23633;DHT22;11993;48.748;9.166;2023-06-26T15:04:05;31.00;35.20
23633;DHT22;11993;48.748;9.166;2023-06-26T15:06:31;30.80;35.70
23633;DHT22;11993;48.748;9.166;2023-06-26T15:08:57;30.60;36.40
23633;DHT22;11993;48.748;9.166;2023-06-26T15:11:23;30.60;36.10
23633;DHT22;11993;48.748;9.166;2023-06-26T15:13:49;30.50;36.40
23633;DHT22;11993;48.748;9.166;2023-06-26T15:16:15;30.30;37.10
23633;DHT22;11993;48.748;9.166;2023-06-26T15:18:43;30.20;37.40
23633;DHT22;11993;48.748;9.166;2023-06-26T15:21:09;30.30;37.10
23633;DHT22;11993;48.748;9.166;2023-06-26T15:23:34;30.40;37.20
23633;DHT22;11993;48.748;9.166;2023-06-26T15:26:00;30.30;37.10
23633;DHT22;11993;48.748;9.166;2023-06-26T15:28:26;30.10;37.70
23633;DHT22;11993;48.748;9.166;2023-06-26T15:30:51;30.00;37.30
23633;DHT22;11993;48.748;9.166;2023-06-26T15:33:17;30.00;37.20
23633;DHT22;11993;48.748;9.166;2023-06-26T15:35:43;29.80;37.20
23633;DHT22;11993;48.748;9.166;2023-06-26T15:38:08;29.60;37.10